KIWI

Wiscasset Airport

Wiscasset, Maine, USA
METAR KIWI 231953Z AUTO 00000KT 10SM OVC075 09/07 A3008 RMK AO2 SLP185 T00940072 TSNO
Observed Flight Rules
Oct-23 @ 19:53 UTC (an hour ago) Visual Flight Rules
Visibility Clouds
10 miles
  • Overcast at 7,500' AGL
Temperatures Readings
Current 9°C / 48°F
Dewpoint 7°C / 45°F
Humidity 87%
Altimeter 30.08" Hg
Pressure 1018.5 hPa
Elevation 20
METAR KIWI 231953Z AUTO 00000KT 10SM OVC075 09/07 A3008 RMK AO2 SLP185 T00940072 TSNO
Observed Flight Rules
Oct-23 @ 19:53 UTC
(an hour ago)
VFR
Clouds
  • Overcast at 7,500' AGL
Temperature Dewpoint
9°C / 48°F 7°C / 45°F
Humidity Altimeter Pressure
87% 30.08" Hg 1018.5 hPa